sensor_id;sensor_type;location;lat;lon;timestamp;P1;durP1;ratioP1;P2;durP2;ratioP2
72621;SDS011;60665;53.506;9.582;2023-02-22T05:00:18;92.53;;;14.82;;
72621;SDS011;60665;53.506;9.582;2023-02-22T05:02:48;94.05;;;15.43;;
72621;SDS011;60665;53.506;9.582;2023-02-22T05:05:14;88.25;;;17.42;;
72621;SDS011;60665;53.506;9.582;2023-02-22T05:07:41;94.63;;;17.02;;
72621;SDS011;60665;53.506;9.582;2023-02-22T05:10:07;83.88;;;16.77;;
72621;SDS011;60665;53.506;9.582;2023-02-22T05:12:34;81.95;;;15.43;;
72621;SDS011;60665;53.506;9.582;2023-02-22T05:14:59;79.80;;;15.07;;
72621;SDS011;60665;53.506;9.582;2023-02-22T05:17:25;64.60;;;15.02;;
72621;SDS011;60665;53.506;9.582;2023-02-22T05:19:50;69.07;;;15.00;;
72621;SDS011;60665;53.506;9.582;2023-02-22T05:22:16;59.00;;;13.60;;
72621;SDS011;60665;53.506;9.582;2023-02-22T05:24:41;74.88;;;14.68;;
72621;SDS011;60665;53.506;9.582;2023-02-22T05:27:07;69.38;;;15.50;;
72621;SDS011;60665;53.506;9.582;2023-02-22T05:29:33;61.88;;;15.90;;
72621;SDS011;60665;53.506;9.582;2023-02-22T05:31:58;65.93;;;16.73;;
72621;SDS011;60665;53.506;9.582;2023-02-22T05:34:26;64.40;;;15.57;;
72621;SDS011;60665;53.506;9.582;2023-02-22T05:36:52;64.97;;;15.20;;
72621;SDS011;60665;53.506;9.582;2023-02-22T05:39:17;57.97;;;15.57;;
72621;SDS011;60665;53.506;9.582;2023-02-22T05:41:43;66.22;;;16.35;;
72621;SDS011;60665;53.506;9.582;2023-02-22T05:44:09;62.88;;;16.92;;
72621;SDS011;60665;53.506;9.582;2023-02-22T05:46:34;61.10;;;16.17;;
72621;SDS011;60665;53.506;9.582;2023-02-22T05:49:00;61.55;;;16.67;;
72621;SDS011;60665;53.506;9.582;2023-02-22T05:51:25;62.83;;;17.55;;
72621;SDS011;60665;53.506;9.582;2023-02-22T05:53:50;58.22;;;16.08;;
72621;SDS011;60665;53.506;9.582;2023-02-22T05:56:23;58.78;;;17.27;;
72621;SDS011;60665;53.506;9.582;2023-02-22T05:58:49;54.55;;;16.08;;
72621;SDS011;60665;53.506;9.582;2023-02-22T06:01:15;58.75;;;16.75;;
72621;SDS011;60665;53.506;9.582;2023-02-22T06:03:40;58.78;;;17.63;;
72621;SDS011;60665;53.506;9.582;2023-02-22T06:06:06;62.97;;;18.98;;
72621;SDS011;60665;53.506;9.582;2023-02-22T06:08:31;54.08;;;16.65;;
72621;SDS011;60665;53.506;9.582;2023-02-22T06:10:57;62.08;;;16.80;;
72621;SDS011;60665;53.506;9.582;2023-02-22T06:13:22;65.05;;;17.98;;
72621;SDS011;60665;53.506;9.582;2023-02-22T06:15:48;62.10;;;18.23;;
72621;SDS011;60665;53.506;9.582;2023-02-22T06:18:13;64.88;;;17.45;;
72621;SDS011;60665;53.506;9.582;2023-02-22T06:20:39;73.30;;;19.70;;
72621;SDS011;60665;53.506;9.582;2023-02-22T06:23:05;68.60;;;19.30;;
72621;SDS011;60665;53.506;9.582;2023-02-22T06:25:31;65.35;;;17.90;;
72621;SDS011;60665;53.506;9.582;2023-02-22T06:27:56;59.47;;;17.65;;
72621;SDS011;60665;53.506;9.582;2023-02-22T06:30:23;63.65;;;18.13;;
72621;SDS011;60665;53.506;9.582;2023-02-22T06:32:50;58.78;;;16.70;;
72621;SDS011;60665;53.506;9.582;2023-02-22T06:35:15;60.28;;;17.23;;
72621;SDS011;60665;53.506;9.582;2023-02-22T06:37:41;59.90;;;17.65;;
72621;SDS011;60665;53.506;9.582;2023-02-22T06:40:07;51.03;;;16.42;;
72621;SDS011;60665;53.506;9.582;2023-02-22T06:42:32;54.60;;;17.23;;
72621;SDS011;60665;53.506;9.582;2023-02-22T06:44:58;57.35;;;17.48;;
72621;SDS011;60665;53.506;9.582;2023-02-22T06:47:23;56.80;;;17.95;;
72621;SDS011;60665;53.506;9.582;2023-02-22T06:49:55;62.72;;;18.38;;
72621;SDS011;60665;53.506;9.582;2023-02-22T06:52:21;52.67;;;17.50;;
72621;SDS011;60665;53.506;9.582;2023-02-22T06:54:47;63.75;;;19.20;;
72621;SDS011;60665;53.506;9.582;2023-02-22T06:57:13;61.33;;;18.05;;
72621;SDS011;60665;53.506;9.582;2023-02-22T06:59:38;58.95;;;17.70;;
72621;SDS011;60665;53.506;9.582;2023-02-22T07:02:04;64.18;;;18.50;;
72621;SDS011;60665;53.506;9.582;2023-02-22T07:04:30;56.13;;;17.27;;
72621;SDS011;60665;53.506;9.582;2023-02-22T16:31:25;12.73;;;5.63;;
72621;SDS011;60665;53.506;9.582;2023-02-22T16:33:57;13.75;;;5.50;;
72621;SDS011;60665;53.506;9.582;2023-02-22T16:36:34;11.80;;;5.20;;
72621;SDS011;60665;53.506;9.582;2023-02-22T16:39:10;12.43;;;5.65;;
72621;SDS011;60665;53.506;9.582;2023-02-22T16:42:01;13.27;;;6.03;;
72621;SDS011;60665;53.506;9.582;2023-02-22T16:44:29;15.65;;;6.45;;
72621;SDS011;60665;53.506;9.582;2023-02-22T16:46:55;14.57;;;6.90;;
72621;SDS011;60665;53.506;9.582;2023-02-22T16:49:22;14.15;;;6.68;;
72621;SDS011;60665;53.506;9.582;2023-02-22T16:51:52;13.85;;;6.43;;
72621;SDS011;60665;53.506;9.582;2023-02-22T16:54:27;16.92;;;7.90;;
72621;SDS011;60665;53.506;9.582;2023-02-22T16:56:53;14.02;;;7.30;;
72621;SDS011;60665;53.506;9.582;2023-02-22T16:59:20;16.00;;;7.03;;
72621;SDS011;60665;53.506;9.582;2023-02-22T17:01:45;15.27;;;7.05;;
72621;SDS011;60665;53.506;9.582;2023-02-22T17:04:15;17.13;;;6.85;;
72621;SDS011;60665;53.506;9.582;2023-02-22T17:06:42;17.02;;;8.30;;
72621;SDS011;60665;53.506;9.582;2023-02-22T17:09:08;30.85;;;13.68;;
72621;SDS011;60665;53.506;9.582;2023-02-22T17:11:34;21.30;;;9.95;;
72621;SDS011;60665;53.506;9.582;2023-02-22T17:14:00;20.63;;;9.00;;
72621;SDS011;60665;53.506;9.582;2023-02-22T17:16:26;18.42;;;8.38;;
72621;SDS011;60665;53.506;9.582;2023-02-22T17:18:51;17.40;;;8.45;;
72621;SDS011;60665;53.506;9.582;2023-02-22T17:21:16;18.08;;;8.68;;
72621;SDS011;60665;53.506;9.582;2023-02-22T17:23:42;16.05;;;8.27;;
72621;SDS011;60665;53.506;9.582;2023-02-22T17:26:12;21.48;;;10.98;;
72621;SDS011;60665;53.506;9.582;2023-02-22T17:28:38;16.00;;;8.10;;
72621;SDS011;60665;53.506;9.582;2023-02-22T17:31:04;24.70;;;10.75;;
72621;SDS011;60665;53.506;9.582;2023-02-22T17:33:31;21.25;;;11.73;;
72621;SDS011;60665;53.506;9.582;2023-02-22T17:35:58;26.55;;;14.02;;
72621;SDS011;60665;53.506;9.582;2023-02-22T17:38:26;18.05;;;10.05;;
72621;SDS011;60665;53.506;9.582;2023-02-22T17:43:19;22.17;;;9.93;;
72621;SDS011;60665;53.506;9.582;2023-02-22T17:45:45;20.45;;;10.18;;
72621;SDS011;60665;53.506;9.582;2023-02-22T17:48:11;18.60;;;10.05;;
72621;SDS011;60665;53.506;9.582;2023-02-22T17:50:38;21.02;;;9.45;;
72621;SDS011;60665;53.506;9.582;2023-02-22T17:53:04;18.83;;;9.18;;
72621;SDS011;60665;53.506;9.582;2023-02-22T17:55:31;18.73;;;9.35;;
72621;SDS011;60665;53.506;9.582;2023-02-22T17:57:58;19.98;;;9.18;;
72621;SDS011;60665;53.506;9.582;2023-02-22T18:00:27;20.35;;;9.73;;
72621;SDS011;60665;53.506;9.582;2023-02-22T18:03:01;20.08;;;9.00;;
72621;SDS011;60665;53.506;9.582;2023-02-22T18:05:28;20.77;;;10.27;;
72621;SDS011;60665;53.506;9.582;2023-02-22T18:07:54;21.25;;;10.07;;
72621;SDS011;60665;53.506;9.582;2023-02-22T18:10:19;19.05;;;9.38;;
72621;SDS011;60665;53.506;9.582;2023-02-22T18:12:46;18.55;;;8.90;;
72621;SDS011;60665;53.506;9.582;2023-02-22T18:15:15;18.48;;;9.40;;
72621;SDS011;60665;53.506;9.582;2023-02-22T18:17:41;21.08;;;10.15;;
72621;SDS011;60665;53.506;9.582;2023-02-22T18:20:08;25.13;;;12.73;;
72621;SDS011;60665;53.506;9.582;2023-02-22T18:22:44;22.23;;;11.20;;
72621;SDS011;60665;53.506;9.582;2023-02-22T18:25:10;15.68;;;8.32;;
72621;SDS011;60665;53.506;9.582;2023-02-22T18:27:38;23.90;;;11.95;;
72621;SDS011;60665;53.506;9.582;2023-02-22T18:30:04;21.77;;;11.52;;
72621;SDS011;60665;53.506;9.582;2023-02-22T18:32:30;22.20;;;11.50;;
72621;SDS011;60665;53.506;9.582;2023-02-22T18:34:56;22.33;;;12.10;;
72621;SDS011;60665;53.506;9.582;2023-02-22T18:37:22;18.40;;;10.70;;
72621;SDS011;60665;53.506;9.582;2023-02-22T18:39:52;20.60;;;10.27;;
72621;SDS011;60665;53.506;9.582;2023-02-22T18:42:19;17.95;;;9.38;;
72621;SDS011;60665;53.506;9.582;2023-02-22T18:44:47;19.08;;;9.77;;
72621;SDS011;60665;53.506;9.582;2023-02-22T18:47:16;24.02;;;10.52;;
72621;SDS011;60665;53.506;9.582;2023-02-22T18:49:42;19.75;;;10.18;;
72621;SDS011;60665;53.506;9.582;2023-02-22T18:52:08;17.92;;;9.13;;
72621;SDS011;60665;53.506;9.582;2023-02-22T18:54:39;20.88;;;8.75;;
72621;SDS011;60665;53.506;9.582;2023-02-22T18:57:07;20.10;;;9.77;;
72621;SDS011;60665;53.506;9.582;2023-02-22T18:59:36;21.70;;;9.07;;
72621;SDS011;60665;53.506;9.582;2023-02-22T19:02:06;17.25;;;9.15;;
72621;SDS011;60665;53.506;9.582;2023-02-22T19:04:36;17.95;;;8.65;;
72621;SDS011;60665;53.506;9.582;2023-02-22T19:07:02;17.88;;;8.32;;
72621;SDS011;60665;53.506;9.582;2023-02-22T19:09:28;17.15;;;8.52;;
72621;SDS011;60665;53.506;9.582;2023-02-22T19:11:54;17.80;;;9.38;;
72621;SDS011;60665;53.506;9.582;2023-02-22T19:14:19;18.27;;;8.55;;
72621;SDS011;60665;53.506;9.582;2023-02-22T19:16:46;20.17;;;9.90;;
72621;SDS011;60665;53.506;9.582;2023-02-22T19:19:13;18.75;;;8.95;;
72621;SDS011;60665;53.506;9.582;2023-02-22T19:21:44;17.60;;;9.40;;
72621;SDS011;60665;53.506;9.582;2023-02-22T19:24:10;19.27;;;9.25;;
72621;SDS011;60665;53.506;9.582;2023-02-22T19:26:37;19.95;;;10.00;;
72621;SDS011;60665;53.506;9.582;2023-02-22T19:29:02;19.17;;;9.10;;
72621;SDS011;60665;53.506;9.582;2023-02-22T19:31:32;22.75;;;10.27;;
72621;SDS011;60665;53.506;9.582;2023-02-22T19:33:59;19.90;;;10.02;;
72621;SDS011;60665;53.506;9.582;2023-02-22T19:36:26;23.27;;;9.88;;
72621;SDS011;60665;53.506;9.582;2023-02-22T19:38:51;24.50;;;10.48;;
72621;SDS011;60665;53.506;9.582;2023-02-22T19:41:18;23.65;;;10.55;;
72621;SDS011;60665;53.506;9.582;2023-02-22T19:43:45;22.23;;;11.02;;
72621;SDS011;60665;53.506;9.582;2023-02-22T19:46:12;23.73;;;11.50;;
72621;SDS011;60665;53.506;9.582;2023-02-22T19:48:38;21.38;;;8.80;;
72621;SDS011;60665;53.506;9.582;2023-02-22T19:51:05;19.90;;;9.48;;
72621;SDS011;60665;53.506;9.582;2023-02-22T19:53:32;20.73;;;9.48;;
72621;SDS011;60665;53.506;9.582;2023-02-22T19:55:58;20.42;;;9.60;;
72621;SDS011;60665;53.506;9.582;2023-02-22T19:58:24;22.27;;;9.75;;
72621;SDS011;60665;53.506;9.582;2023-02-22T20:00:49;24.95;;;10.57;;
72621;SDS011;60665;53.506;9.582;2023-02-22T20:03:15;21.20;;;10.23;;
72621;SDS011;60665;53.506;9.582;2023-02-22T20:05:49;18.65;;;9.38;;
72621;SDS011;60665;53.506;9.582;2023-02-22T20:10:40;18.38;;;8.20;;
72621;SDS011;60665;53.506;9.582;2023-02-22T20:13:06;23.08;;;10.20;;
72621;SDS011;60665;53.506;9.582;2023-02-22T20:15:34;21.33;;;9.60;;
72621;SDS011;60665;53.506;9.582;2023-02-22T20:18:00;21.98;;;9.60;;
72621;SDS011;60665;53.506;9.582;2023-02-22T20:20:25;23.17;;;10.07;;
72621;SDS011;60665;53.506;9.582;2023-02-22T20:22:51;21.55;;;9.80;;
72621;SDS011;60665;53.506;9.582;2023-02-22T20:25:17;21.25;;;8.85;;
72621;SDS011;60665;53.506;9.582;2023-02-22T20:27:43;22.75;;;9.45;;
72621;SDS011;60665;53.506;9.582;2023-02-22T20:30:08;19.23;;;7.88;;
72621;SDS011;60665;53.506;9.582;2023-02-22T20:32:35;20.55;;;9.15;;
72621;SDS011;60665;53.506;9.582;2023-02-22T20:35:02;21.65;;;9.25;;
72621;SDS011;60665;53.506;9.582;2023-02-22T20:37:31;23.23;;;9.55;;
72621;SDS011;60665;53.506;9.582;2023-02-22T20:39:57;20.65;;;8.90;;
72621;SDS011;60665;53.506;9.582;2023-02-22T20:42:24;23.95;;;9.43;;
72621;SDS011;60665;53.506;9.582;2023-02-22T20:44:50;18.65;;;9.10;;
72621;SDS011;60665;53.506;9.582;2023-02-22T20:47:15;20.65;;;8.45;;
72621;SDS011;60665;53.506;9.582;2023-02-22T20:49:41;21.58;;;9.18;;
72621;SDS011;60665;53.506;9.582;2023-02-22T20:52:06;17.75;;;8.68;;
72621;SDS011;60665;53.506;9.582;2023-02-22T20:54:31;19.92;;;8.63;;
72621;SDS011;60665;53.506;9.582;2023-02-22T20:56:59;24.70;;;10.23;;
72621;SDS011;60665;53.506;9.582;2023-02-22T20:59:24;18.15;;;8.88;;
72621;SDS011;60665;53.506;9.582;2023-02-22T21:01:53;18.20;;;8.43;;
72621;SDS011;60665;53.506;9.582;2023-02-22T21:04:19;19.45;;;8.63;;
72621;SDS011;60665;53.506;9.582;2023-02-22T21:06:46;18.65;;;8.48;;
72621;SDS011;60665;53.506;9.582;2023-02-22T21:09:13;20.10;;;9.75;;
72621;SDS011;60665;53.506;9.582;2023-02-22T21:11:39;20.63;;;8.82;;
72621;SDS011;60665;53.506;9.582;2023-02-22T21:14:05;20.58;;;9.15;;
72621;SDS011;60665;53.506;9.582;2023-02-22T21:16:32;24.67;;;10.18;;
72621;SDS011;60665;53.506;9.582;2023-02-22T21:19:00;20.40;;;9.85;;
72621;SDS011;60665;53.506;9.582;2023-02-22T21:21:27;22.55;;;9.45;;
72621;SDS011;60665;53.506;9.582;2023-02-22T21:23:54;23.13;;;9.40;;
72621;SDS011;60665;53.506;9.582;2023-02-22T21:26:21;24.73;;;11.27;;
72621;SDS011;60665;53.506;9.582;2023-02-22T21:28:49;25.92;;;11.27;;
72621;SDS011;60665;53.506;9.582;2023-02-22T21:31:18;23.33;;;10.98;;
72621;SDS011;60665;53.506;9.582;2023-02-22T21:33:46;21.23;;;9.68;;
